sensor_id;sensor_type;location;lat;lon;timestamp;temperature;humidity
72646;DHT22;60687;53.876;10.674;2023-03-04T02:19:40;5.70;99.90
72646;DHT22;60687;53.876;10.674;2023-03-04T02:29:45;5.80;99.90
72646;DHT22;60687;53.876;10.674;2023-03-04T02:39:48;5.70;99.90
72646;DHT22;60687;53.876;10.674;2023-03-04T02:49:58;5.80;99.90
72646;DHT22;60687;53.876;10.674;2023-03-04T03:00:01;5.80;99.90
72646;DHT22;60687;53.876;10.674;2023-03-04T03:10:12;5.80;99.90
72646;DHT22;60687;53.876;10.674;2023-03-04T03:20:16;5.90;99.90
72646;DHT22;60687;53.876;10.674;2023-03-04T03:30:21;5.90;99.90
72646;DHT22;60687;53.876;10.674;2023-03-04T03:40:23;5.90;99.90
72646;DHT22;60687;53.876;10.674;2023-03-04T03:50:29;5.90;99.90
72646;DHT22;60687;53.876;10.674;2023-03-04T04:00:33;5.90;99.90
72646;DHT22;60687;53.876;10.674;2023-03-04T04:10:39;5.90;99.40
72646;DHT22;60687;53.876;10.674;2023-03-04T04:20:43;5.90;93.80
72646;DHT22;60687;53.876;10.674;2023-03-04T04:30:47;5.80;93.80
72646;DHT22;60687;53.876;10.674;2023-03-04T04:40:49;5.80;95.00
72646;DHT22;60687;53.876;10.674;2023-03-04T04:50:56;5.80;95.60
72646;DHT22;60687;53.876;10.674;2023-03-04T05:01:00;5.80;94.30
72646;DHT22;60687;53.876;10.674;2023-03-04T05:11:06;5.80;92.90
72646;DHT22;60687;53.876;10.674;2023-03-04T05:21:09;5.70;93.50
72646;DHT22;60687;53.876;10.674;2023-03-04T05:31:14;5.70;93.20
72646;DHT22;60687;53.876;10.674;2023-03-04T05:41:17;5.70;93.10
72646;DHT22;60687;53.876;10.674;2023-03-04T05:51:24;5.70;92.00
72646;DHT22;60687;53.876;10.674;2023-03-04T06:01:27;5.60;91.00
72646;DHT22;60687;53.876;10.674;2023-03-04T06:11:35;5.50;85.10
72646;DHT22;60687;53.876;10.674;2023-03-04T06:21:43;5.50;87.50
72646;DHT22;60687;53.876;10.674;2023-03-04T06:31:55;5.50;87.40
72646;DHT22;60687;53.876;10.674;2023-03-04T06:42:00;5.40;88.60
72646;DHT22;60687;53.876;10.674;2023-03-04T06:52:07;5.30;87.60
72646;DHT22;60687;53.876;10.674;2023-03-04T07:02:13;5.30;82.70
72646;DHT22;60687;53.876;10.674;2023-03-04T07:12:19;5.30;84.80
72646;DHT22;60687;53.876;10.674;2023-03-04T07:22:21;5.30;86.60
72646;DHT22;60687;53.876;10.674;2023-03-04T07:32:31;5.40;87.50
72646;DHT22;60687;53.876;10.674;2023-03-04T07:42:53;5.40;89.20
72646;DHT22;60687;53.876;10.674;2023-03-04T07:53:09;5.50;90.00
72646;DHT22;60687;53.876;10.674;2023-03-04T08:03:18;5.50;88.30
72646;DHT22;60687;53.876;10.674;2023-03-04T08:13:28;5.60;86.40
72646;DHT22;60687;53.876;10.674;2023-03-04T08:23:35;5.60;84.60
72646;DHT22;60687;53.876;10.674;2023-03-04T08:33:42;5.60;83.20
72646;DHT22;60687;53.876;10.674;2023-03-04T08:43:48;5.70;80.60
72646;DHT22;60687;53.876;10.674;2023-03-04T08:53:59;5.70;75.50
72646;DHT22;60687;53.876;10.674;2023-03-04T09:04:03;5.80;75.50
72646;DHT22;60687;53.876;10.674;2023-03-04T09:14:41;5.70;74.60
72646;DHT22;60687;53.876;10.674;2023-03-04T09:24:52;5.90;77.80
72646;DHT22;60687;53.876;10.674;2023-03-04T09:35:05;6.00;70.60
72646;DHT22;60687;53.876;10.674;2023-03-04T09:45:20;6.00;71.80
72646;DHT22;60687;53.876;10.674;2023-03-04T09:55:45;6.00;73.20
72646;DHT22;60687;53.876;10.674;2023-03-04T10:06:08;5.90;70.50
72646;DHT22;60687;53.876;10.674;2023-03-04T10:16:18;6.00;71.60
72646;DHT22;60687;53.876;10.674;2023-03-04T10:26:30;6.00;71.40
72646;DHT22;60687;53.876;10.674;2023-03-04T10:36:52;6.00;72.70
72646;DHT22;60687;53.876;10.674;2023-03-04T10:46:58;6.00;72.60
72646;DHT22;60687;53.876;10.674;2023-03-04T10:57:04;6.00;71.10
72646;DHT22;60687;53.876;10.674;2023-03-04T11:07:29;6.00;69.90
72646;DHT22;60687;53.876;10.674;2023-03-04T11:17:46;6.20;70.30
72646;DHT22;60687;53.876;10.674;2023-03-04T11:27:56;6.30;67.90
72646;DHT22;60687;53.876;10.674;2023-03-04T11:38:09;6.30;67.00
72646;DHT22;60687;53.876;10.674;2023-03-04T11:48:24;6.30;68.00
72646;DHT22;60687;53.876;10.674;2023-03-04T11:58:56;6.30;66.90
72646;DHT22;60687;53.876;10.674;2023-03-04T12:09:21;6.30;67.40
72646;DHT22;60687;53.876;10.674;2023-03-04T12:19:43;6.30;67.40
72646;DHT22;60687;53.876;10.674;2023-03-04T12:29:56;6.30;67.70
72646;DHT22;60687;53.876;10.674;2023-03-04T12:40:25;6.30;69.60
72646;DHT22;60687;53.876;10.674;2023-03-04T12:50:49;6.30;68.90
72646;DHT22;60687;53.876;10.674;2023-03-04T13:01:14;6.30;69.00
72646;DHT22;60687;53.876;10.674;2023-03-04T13:11:45;6.40;71.20
72646;DHT22;60687;53.876;10.674;2023-03-04T13:33:45;6.50;71.50
72646;DHT22;60687;53.876;10.674;2023-03-04T13:43:56;6.50;70.60
72646;DHT22;60687;53.876;10.674;2023-03-04T13:54:15;6.50;71.40
72646;DHT22;60687;53.876;10.674;2023-03-04T14:04:27;6.40;70.20
72646;DHT22;60687;53.876;10.674;2023-03-04T14:14:46;6.50;71.00
72646;DHT22;60687;53.876;10.674;2023-03-04T14:25:30;6.40;71.50
72646;DHT22;60687;53.876;10.674;2023-03-04T14:35:51;6.50;70.10
72646;DHT22;60687;53.876;10.674;2023-03-04T14:46:12;6.60;71.30
72646;DHT22;60687;53.876;10.674;2023-03-04T14:56:44;6.60;70.20
72646;DHT22;60687;53.876;10.674;2023-03-04T15:06:58;6.70;69.30
72646;DHT22;60687;53.876;10.674;2023-03-04T15:17:23;6.60;65.90
72646;DHT22;60687;53.876;10.674;2023-03-04T15:27:32;6.50;66.30
72646;DHT22;60687;53.876;10.674;2023-03-04T15:37:43;6.30;66.90
72646;DHT22;60687;53.876;10.674;2023-03-04T15:47:47;6.20;67.40
72646;DHT22;60687;53.876;10.674;2023-03-04T15:58:03;6.20;67.50
72646;DHT22;60687;53.876;10.674;2023-03-04T16:08:14;6.10;67.90
72646;DHT22;60687;53.876;10.674;2023-03-04T16:18:26;6.10;69.60
72646;DHT22;60687;53.876;10.674;2023-03-04T16:28:34;6.10;68.50
72646;DHT22;60687;53.876;10.674;2023-03-04T16:49:42;6.00;67.20
72646;DHT22;60687;53.876;10.674;2023-03-04T16:59:54;5.90;69.30
72646;DHT22;60687;53.876;10.674;2023-03-04T17:10:05;5.90;67.10
72646;DHT22;60687;53.876;10.674;2023-03-04T17:20:19;5.80;70.40
72646;DHT22;60687;53.876;10.674;2023-03-04T17:30:27;5.80;73.50
72646;DHT22;60687;53.876;10.674;2023-03-04T17:40:32;5.70;76.40
72646;DHT22;60687;53.876;10.674;2023-03-04T17:51:00;5.60;75.30
72646;DHT22;60687;53.876;10.674;2023-03-04T18:01:08;5.60;72.50
72646;DHT22;60687;53.876;10.674;2023-03-04T18:11:17;5.40;69.80
72646;DHT22;60687;53.876;10.674;2023-03-04T18:21:25;5.40;74.60
72646;DHT22;60687;53.876;10.674;2023-03-04T18:31:45;5.30;74.80
72646;DHT22;60687;53.876;10.674;2023-03-04T18:41:54;5.30;75.00
72646;DHT22;60687;53.876;10.674;2023-03-04T18:52:30;5.30;73.90
72646;DHT22;60687;53.876;10.674;2023-03-04T19:02:38;5.10;73.90
72646;DHT22;60687;53.876;10.674;2023-03-04T19:12:59;5.10;74.20
72646;DHT22;60687;53.876;10.674;2023-03-04T19:23:06;5.00;73.20
72646;DHT22;60687;53.876;10.674;2023-03-04T19:33:23;5.00;73.80
72646;DHT22;60687;53.876;10.674;2023-03-04T19:43:43;4.80;73.20
72646;DHT22;60687;53.876;10.674;2023-03-04T19:53:58;4.70;72.90
72646;DHT22;60687;53.876;10.674;2023-03-04T20:04:08;4.50;72.50
72646;DHT22;60687;53.876;10.674;2023-03-04T20:14:27;4.40;71.20
72646;DHT22;60687;53.876;10.674;2023-03-04T20:24:46;4.20;72.10
72646;DHT22;60687;53.876;10.674;2023-03-04T20:35:08;4.10;70.60
72646;DHT22;60687;53.876;10.674;2023-03-04T20:45:14;4.00;70.70
72646;DHT22;60687;53.876;10.674;2023-03-04T20:55:19;3.90;70.50
72646;DHT22;60687;53.876;10.674;2023-03-04T21:05:35;3.90;71.40
72646;DHT22;60687;53.876;10.674;2023-03-04T21:15:49;3.80;70.80
72646;DHT22;60687;53.876;10.674;2023-03-04T21:25:58;3.70;70.60
72646;DHT22;60687;53.876;10.674;2023-03-04T21:46:49;3.40;70.70
72646;DHT22;60687;53.876;10.674;2023-03-04T21:56:57;3.30;71.90
72646;DHT22;60687;53.876;10.674;2023-03-04T22:07:03;3.30;71.00
72646;DHT22;60687;53.876;10.674;2023-03-04T22:17:09;3.30;71.10
72646;DHT22;60687;53.876;10.674;2023-03-04T22:27:15;3.30;71.60
72646;DHT22;60687;53.876;10.674;2023-03-04T22:37:22;3.20;71.70
72646;DHT22;60687;53.876;10.674;2023-03-04T22:58:45;3.20;71.30
72646;DHT22;60687;53.876;10.674;2023-03-04T23:08:52;3.20;73.20
72646;DHT22;60687;53.876;10.674;2023-03-04T23:18:59;3.20;74.80
72646;DHT22;60687;53.876;10.674;2023-03-04T23:29:08;3.20;76.50
72646;DHT22;60687;53.876;10.674;2023-03-04T23:39:16;3.20;77.00
72646;DHT22;60687;53.876;10.674;2023-03-04T23:49:26;3.20;78.40
72646;DHT22;60687;53.876;10.674;2023-03-04T23:59:34;3.20;80.00
